Johann Essberger — CQKG — position and weather

sailwx.info

Track history (hours):
 
Tides and Currents Weather Stations Pressure Air Temp Water Temp Dewpoint Dewpoint Depression Visibility Wind Speed Wind Dir Waves Ship Positions

Johann Essberger

Last reported at 2017-Aug-24 01:00 UTC. Time now 2017-Aug-24 01:12 UTC.
Position N 64°12' E 022°16'.

Length 98 m; draft 6.7 m.

Type: Tanker. MMSI: 255804460.

Date/timePositionNaut miles runAvg speedWind from/ knotsBaromVisibWave heightAir tempDewpointWater temp
2017-Aug-24 01:00N 64°12' E 022°16'611.6
2017-Aug-24 00:31N 64°08' E 022°07'611.6
2017-Aug-24 00:00N 64°03' E 021°59'611.3
2017-Aug-23 23:31N 63°59' E 021°51'510.9
2017-Aug-23 23:00N 63°54' E 021°43'511.0
2017-Aug-23 22:30N 63°50' E 021°35'510.9
2017-Aug-23 22:00N 63°46' E 021°27'611.4
2017-Aug-23 21:30N 63°42' E 021°19'612.0
2017-Aug-23 21:00N 63°37' E 021°10'611.7
2017-Aug-23 20:30N 63°34' E 020°59'612.0
2017-Aug-23 20:00N 63°32' E 020°46'612.8
2017-Aug-23 19:30N 63°27' E 020°38'510.7
2017-Aug-23 19:00N 63°23' E 020°31'611.6
2017-Aug-23 18:30N 63°18' E 020°24'611.3
2017-Aug-23 18:00N 63°12' E 020°22'611.8
2017-Aug-23 17:30N 63°06' E 020°22'611.7
2017-Aug-23 17:00N 63°00' E 020°22'611.8
2017-Aug-23 16:30N 62°54' E 020°22'611.9
2017-Aug-23 16:00N 62°48' E 020°22'611.7
2017-Aug-23 15:30N 62°43' E 020°22'611.6
2017-Aug-23 15:00N 62°37' E 020°22'1111.4
2017-Aug-23 14:00N 62°25' E 020°23'611.5
2017-Aug-23 13:30N 62°20' E 020°24'611.7
2017-Aug-23 13:00N 62°14' E 020°26'611.8
2017-Aug-23 12:30N 62°08' E 020°27'611.8
2017-Aug-23 12:00N 62°02' E 020°28'611.8
2017-Aug-23 11:30N 61°56' E 020°30'611.7
2017-Aug-23 11:00N 61°50' E 020°31'611.5
2017-Aug-23 10:30N 61°45' E 020°32'611.4
2017-Aug-23 10:00N 61°39' E 020°34'611.3
2017-Aug-23 09:30N 61°33' E 020°35'611.3
2017-Aug-23 09:00N 61°28' E 020°36'611.2
2017-Aug-23 08:30N 61°22' E 020°37'611.2
2017-Aug-23 08:00N 61°17' E 020°38'611.0
2017-Aug-23 07:30N 61°11' E 020°40'510.9
2017-Aug-23 07:00N 61°06' E 020°41'510.8
2017-Aug-23 06:30N 61°00' E 020°42'510.8
2017-Aug-23 06:00N 60°55' E 020°43'510.8
2017-Aug-23 05:30N 60°50' E 020°45'611.3
2017-Aug-23 05:00N 60°46' E 020°52'510.9
2017-Aug-23 04:30N 60°42' E 021°01'713.0
2017-Aug-23 04:00N 60°36' E 021°06'713.3
2017-Aug-23 03:31N 60°30' E 021°11'713.5
2017-Aug-23 03:00N 60°29' E 021°24'612.2
2017-Aug-23 02:31N 60°24' E 021°32'612.9
2017-Aug-23 02:00N 60°19' E 021°41'713.1
2017-Aug-23 01:30N 60°16' E 021°52'612.9
2017-Aug-23 01:00N 60°20' E 022°03'612.3
2017-Aug-23 00:31N 60°25' E 022°08'3 5.3
2017-Aug-23 00:00N 60°26' E 022°13'0 0.0
2017-Aug-22 23:28N 60°26' E 022°13'0 0.0
2017-Aug-22 22:58N 60°26' E 022°13'0 0.0
2017-Aug-22 22:28N 60°26' E 022°13'0 0.0
2017-Aug-22 21:58N 60°26' E 022°13'0 0.0
2017-Aug-22 21:28N 60°26' E 022°13'0 0.0
2017-Aug-22 20:58N 60°26' E 022°13'0 0.0
2017-Aug-22 20:28N 60°26' E 022°13'0 0.0
2017-Aug-22 20:00N 60°26' E 022°13'0 0.0
2017-Aug-22 19:29N 60°26' E 022°13'0 0.0
2017-Aug-22 18:58N 60°26' E 022°13'0 0.0
2017-Aug-22 18:28N 60°26' E 022°13'0 0.0
2017-Aug-22 17:55N 60°26' E 022°13'0 0.0
2017-Aug-22 17:28N 60°26' E 022°13'0 0.0
2017-Aug-22 16:58N 60°26' E 022°13'0 0.0
2017-Aug-22 16:30N 60°26' E 022°13'3 6.3
2017-Aug-22 16:00N 60°25' E 022°08'713.2
2017-Aug-22 15:31N 60°19' E 022°02'713.1
2017-Aug-22 15:01N 60°15' E 021°51'611.6
2017-Aug-22 14:31N 60°12' E 021°42'611.4
2017-Aug-22 14:01N 60°06' E 021°42'713.3
2017-Aug-22 13:31N 59°59' E 021°42'612.9
2017-Aug-22 13:01N 59°54' E 021°34'713.4
2017-Aug-22 12:31N 59°50' E 021°23'611.2
2017-Aug-22 12:00N 59°45' E 021°21'612.4
2017-Aug-22 11:30N 59°39' E 021°19'612.2
2017-Aug-22 11:00N 59°33' E 021°13'612.3
2017-Aug-22 10:30N 59°28' E 021°08'612.2
2017-Aug-22 10:00N 59°22' E 021°02'612.2
2017-Aug-22 09:30N 59°17' E 020°56'612.4
2017-Aug-22 09:00N 59°11' E 020°51'612.5
2017-Aug-22 08:30N 59°06' E 020°45'22312.1
2017-Aug-21 14:05N 56°04' E 016°46'212.2
2017-Aug-21 13:57N 56°03' E 016°43'612.3
2017-Aug-21 13:29N 55°60' E 016°35'612.3
2017-Aug-21 13:00N 55°57' E 016°25'612.4
2017-Aug-21 12:30N 55°54' E 016°16'612.3
2017-Aug-21 12:00N 55°51' E 016°06'612.6
2017-Aug-21 11:30N 55°48' E 015°56'613.0
2017-Aug-21 11:00N 55°45' E 015°46'713.1
2017-Aug-21 10:30N 55°42' E 015°36'713.2
2017-Aug-21 10:00N 55°38' E 015°26'713.3
2017-Aug-21 09:30N 55°35' E 015°15'713.0
2017-Aug-21 09:00N 55°32' E 015°05'612.8
2017-Aug-21 08:30N 55°29' E 014°56'612.9
2017-Aug-21 08:00N 55°26' E 014°45'612.6
2017-Aug-21 07:30N 55°22' E 014°37'612.7
2017-Aug-21 07:00N 55°17' E 014°30'612.6
2017-Aug-21 06:30N 55°12' E 014°23'612.5
2017-Aug-21 06:00N 55°07' E 014°16'612.3
2017-Aug-21 05:29N 55°03' E 014°08'612.1
2017-Aug-21 05:00N 54°60' E 013°60'612.2
2017-Aug-21 04:30N 54°57' E 013°50'611.9
2017-Aug-21 04:00N 54°56' E 013°40'2112.0
2017-Aug-21 02:17N 54°49' E 013°06'312.0
2017-Aug-21 02:00N 54°48' E 013°01'612.1
2017-Aug-21 01:30N 54°46' E 012°51'1411.8
2017-Aug-21 00:17N 54°39' E 012°29'312.1
2017-Aug-21 00:00N 54°37' E 012°24'611.4
2017-Aug-20 23:30N 54°33' E 012°17'612.1
2017-Aug-20 23:00N 54°27' E 012°14'611.3
2017-Aug-20 22:30N 54°24' E 012°05'1512.0
2017-Aug-20 21:14N 54°27' E 011°39'312.1
2017-Aug-20 20:59N 54°28' E 011°34'612.4
2017-Aug-20 20:30N 54°30' E 011°25'612.6
2017-Aug-20 20:00N 54°33' E 011°15'612.1
2017-Aug-20 19:30N 54°35' E 011°05'612.5
2017-Aug-20 19:00N 54°35' E 010°55'612.1
2017-Aug-20 18:30N 54°34' E 010°44'58 7.5
2017-Aug-20 10:51N 54°05' E 009°19'3 8.6
2017-Aug-20 10:28N 54°02' E 009°18'4 8.2
2017-Aug-20 10:00N 53°58' E 009°16'2 3.6
2017-Aug-20 09:30N 53°57' E 009°14'1 2.7
2017-Aug-20 09:00N 53°56' E 009°12'3 5.8
2017-Aug-20 08:30N 53°54' E 009°09'0 0.0
2017-Aug-20 08:00N 53°54' E 009°09'2 3.3
2017-Aug-20 07:30N 53°53' E 009°06'1 2.5
2017-Aug-20 07:01N 53°53' E 009°04'611.4
2017-Aug-20 06:30N 53°51' E 008°55'611.7
2017-Aug-20 06:00N 53°51' E 008°45'611.3
2017-Aug-20 05:28N 53°56' E 008°39'511.1
2017-Aug-20 05:00N 53°58' E 008°31'612.5
2017-Aug-20 04:30N 53°59' E 008°21'713.0
2017-Aug-20 04:00N 53°60' E 008°10'611.8
2017-Aug-20 03:30N 53°58' E 008°00'9410.8
2017-Aug-19 18:48N 53°34' E 005°26'310.5
2017-Aug-19 18:29N 53°32' E 005°21'510.5
2017-Aug-19 17:57N 53°31' E 005°12'510.3
2017-Aug-19 17:30N 53°29' E 005°05'510.4
2017-Aug-19 17:00N 53°27' E 004°57'810.1
2017-Aug-19 16:10N 53°24' E 004°44'2 9.6
2017-Aug-19 15:59N 53°22' E 004°42'2010.0
2017-Aug-19 14:00N 53°04' E 004°27'713.4
2017-Aug-19 13:30N 52°59' E 004°21'713.4
2017-Aug-19 13:00N 52°53' E 004°17'713.5
2017-Aug-19 12:30N 52°47' E 004°11'713.6
2017-Aug-19 12:00N 52°41' E 004°05'713.7
2017-Aug-19 11:30N 52°35' E 003°59'613.0
2017-Aug-19 11:00N 52°29' E 003°55'712.9
2017-Aug-19 10:30N 52°23' E 003°53'612.2
2017-Aug-19 10:00N 52°17' E 003°52'611.7
2017-Aug-19 09:30N 52°11' E 003°54'611.6
2017-Aug-19 09:00N 52°05' E 003°55'4 9.0
2017-Aug-19 08:30N 52°01' E 003°57'713.4
2017-Aug-19 08:00N 51°59' E 004°07'713.6
2017-Aug-19 07:30N 51°54' E 004°16'5 9.4
2017-Aug-19 07:00N 51°51' E 004°21'611.6
2017-Aug-19 06:30N 51°50' E 004°30'917.2
2017-Aug-19 06:00N 51°42' E 004°34'0 0.0
2017-Aug-19 05:30N 51°42' E 004°34'0 0.0
2017-Aug-19 05:00N 51°42' E 004°34'0 0.0
2017-Aug-18 17:54N 51°42' E 004°34'0 0.0
2017-Aug-18 17:30N 51°42' E 004°34'0 0.0
2017-Aug-18 17:00N 51°42' E 004°34'0 0.0
2017-Aug-18 16:30N 51°42' E 004°34'0 0.0
2017-Aug-18 16:00N 51°42' E 004°34'0 0.0
2017-Aug-18 15:30N 51°42' E 004°34'0 0.0
2017-Aug-18 15:00N 51°42' E 004°34'0 0.0
2017-Aug-18 14:30N 51°42' E 004°34'2 2.4
2017-Aug-18 13:31N 51°43' E 004°37'5 9.9
2017-Aug-18 13:01N 51°48' E 004°37'5 9.8
2017-Aug-18 12:30N 51°50' E 004°30'611.7
2017-Aug-18 12:00N 51°51' E 004°21'3 6.4
2017-Aug-18 11:30N 51°53' E 004°17'0 0.4
2017-Aug-18 11:00N 51°53' E 004°17'0 0.0
2017-Aug-18 10:00N 51°53' E 004°17'0 0.0
2017-Aug-18 09:30N 51°53' E 004°17'0 0.0
2017-Aug-18 09:00N 51°53' E 004°17'0 0.0
2017-Aug-18 08:30N 51°53' E 004°17'0 0.0
2017-Aug-18 08:00N 51°53' E 004°17'0 0.0
2017-Aug-18 07:30N 51°53' E 004°17'0 0.0
2017-Aug-18 07:00N 51°53' E 004°17'0 0.0
2017-Aug-18 06:30N 51°53' E 004°17'0 0.0
2017-Aug-18 05:18N 51°53' E 004°17'0 0.0
2017-Aug-18 04:46N 51°53' E 004°17'0 0.0
2017-Aug-18 04:30N 51°53' E 004°17'0 0.0
2017-Aug-18 04:00N 51°53' E 004°17'0 0.0
2017-Aug-18 03:05N 51°53' E 004°17'0 0.0
2017-Aug-18 03:00N 51°53' E 004°17'0 0.0
2017-Aug-18 02:30N 51°53' E 004°17'0 0.0
2017-Aug-18 02:00N 51°53' E 004°17'0 0.0
2017-Aug-18 00:00N 51°53' E 004°17'0 0.0
2017-Aug-17 23:30N 51°53' E 004°17'0 0.0
2017-Aug-17 23:00N 51°53' E 004°17'0 0.0
2017-Aug-17 22:30N 51°53' E 004°17'0 0.0
2017-Aug-17 22:00N 51°53' E 004°17'0 0.0
2017-Aug-17 21:30N 51°53' E 004°17'0 0.0
2017-Aug-17 21:00N 51°53' E 004°17'0 0.0
2017-Aug-17 20:30N 51°53' E 004°17'0 0.0
2017-Aug-17 20:00N 51°53' E 004°17'0 0.0
2017-Aug-17 19:30N 51°53' E 004°17'0 0.0
2017-Aug-17 19:00N 51°53' E 004°17'0 0.0
2017-Aug-17 18:30N 51°53' E 004°17'0 0.0
2017-Aug-17 18:00N 51°53' E 004°17'0 0.0
2017-Aug-17 17:30N 51°53' E 004°17'0 0.0
2017-Aug-17 16:52N 51°53' E 004°17'0 0.0
2017-Aug-17 16:30N 51°53' E 004°17'0 0.0
2017-Aug-17 15:00N 51°53' E 004°17'0 0.0
2017-Aug-17 14:30N 51°53' E 004°17'0 0.0
2017-Aug-17 14:00N 51°53' E 004°17'1 1.3
2017-Aug-17 13:30N 51°54' E 004°17'611.2
2017-Aug-17 13:00N 51°57' E 004°10'612.7
2017-Aug-17 12:30N 51°60' E 004°01'713.4
2017-Aug-17 12:00N 52°00' E 003°50'46 4.5
2017-Aug-17 01:43N 51°49' E 002°38'2 7.8
2017-Aug-17 01:30N 51°48' E 002°40'6 8.9
2017-Aug-17 00:52N 51°45' E 002°48'513.6
2017-Aug-17 00:30N 51°45' E 002°56'713.9
2017-Aug-17 00:01N 51°45' E 003°07'713.6
2017-Aug-16 23:30N 51°43' E 003°17'612.8
2017-Aug-16 23:00N 51°37' E 003°22'714.7
2017-Aug-16 22:30N 51°30' E 003°27'713.5
2017-Aug-16 22:01N 51°26' E 003°35'510.3
2017-Aug-16 21:31N 51°23' E 003°43'713.4
2017-Aug-16 21:00N 51°21' E 003°53'612.5
2017-Aug-16 20:30N 51°26' E 003°59'510.4
2017-Aug-16 20:00N 51°22' E 004°05'510.5
2017-Aug-16 19:30N 51°23' E 004°13'611.5
2017-Aug-16 19:01N 51°18' E 004°17'3 5.0
2017-Aug-16 18:31N 51°17' E 004°20'0 0.3
2017-Aug-16 18:00N 51°17' E 004°20'0 0.5
2017-Aug-16 17:30N 51°17' E 004°20'0 0.0
2017-Aug-16 16:56N 51°17' E 004°20'0 0.0
2017-Aug-16 16:29N 51°17' E 004°20'0 0.0
2017-Aug-16 09:20N 51°17' E 004°20'0 0.0
2017-Aug-16 09:00N 51°17' E 004°20'2 3.1
2017-Aug-16 08:30N 51°15' E 004°21'1 1.0
2017-Aug-16 08:00N 51°15' E 004°21'0 0.0
2017-Aug-16 07:29N 51°15' E 004°21'0 0.0
2017-Aug-16 06:44N 51°15' E 004°21'0 0.0
2017-Aug-16 06:29N 51°15' E 004°21'0 0.0
2017-Aug-16 05:47N 51°15' E 004°21'0 0.0
2017-Aug-16 05:29N 51°15' E 004°21'0 0.0
2017-Aug-16 04:59N 51°15' E 004°21'0 0.0
2017-Aug-16 04:20N 51°15' E 004°21'0 0.0
2017-Aug-16 03:53N 51°15' E 004°21'0 0.0
2017-Aug-16 03:26N 51°15' E 004°21'0 0.0
2017-Aug-16 02:59N 51°15' E 004°21'0 0.0
2017-Aug-16 02:17N 51°15' E 004°21'0 0.0
2017-Aug-16 01:45N 51°15' E 004°21'0 0.0
2017-Aug-16 01:19N 51°15' E 004°21'0 0.0
2017-Aug-16 00:55N 51°15' E 004°21'0 0.0
2017-Aug-16 00:28N 51°15' E 004°21'0 0.0
2017-Aug-15 23:58N 51°15' E 004°21'0 0.0
2017-Aug-15 23:28N 51°15' E 004°21'0 0.0
2017-Aug-15 22:55N 51°15' E 004°21'0 0.0
2017-Aug-15 22:22N 51°15' E 004°21'0 0.0
2017-Aug-15 21:55N 51°15' E 004°21'0 0.0
2017-Aug-15 21:07N 51°15' E 004°21'0 0.0
2017-Aug-15 20:49N 51°15' E 004°21'0 0.0
2017-Aug-15 20:30N 51°15' E 004°21'0 0.3
2017-Aug-15 20:00N 51°15' E 004°22'1 1.4
2017-Aug-15 19:30N 51°16' E 004°21'1 2.2
2017-Aug-15 19:00N 51°17' E 004°20'3 5.4
2017-Aug-15 18:30N 51°19' E 004°19'2 3.9
2017-Aug-15 18:00N 51°21' E 004°17'0 0.0
2017-Aug-15 17:30N 51°21' E 004°17'0 0.0
2017-Aug-15 17:00N 51°21' E 004°17'0 0.5
2017-Aug-15 16:30N 51°21' E 004°17'2 3.2
2017-Aug-15 16:00N 51°21' E 004°14'4 7.0
2017-Aug-15 15:30N 51°23' E 004°09'612.4
2017-Aug-15 15:00N 51°26' E 004°01'713.8
2017-Aug-15 14:30N 51°21' E 003°53'3 5.4
2017-Aug-15 14:01N 51°20' E 003°49'0 0.7
2017-Aug-15 13:31N 51°19' E 003°49'1 2.3
2017-Aug-15 13:01N 51°18' E 003°50'0 0.6
2017-Aug-15 12:26N 51°18' E 003°50'0 0.0
2017-Aug-15 11:08N 51°18' E 003°50'0 0.0
2017-Aug-15 10:56N 51°18' E 003°50'0 0.0
2017-Aug-15 10:14N 51°18' E 003°50'0 0.0
2017-Aug-15 09:38N 51°18' E 003°50'0 0.0
2017-Aug-15 09:14N 51°18' E 003°50'0 0.0
2017-Aug-15 08:50N 51°18' E 003°50'0 0.0
2017-Aug-15 08:02N 51°18' E 003°50'0 0.0
2017-Aug-15 07:20N 51°18' E 003°50'0 0.0
2017-Aug-15 06:56N 51°18' E 003°50'0 0.0
2017-Aug-15 02:50N 51°18' E 003°50'0 0.0
2017-Aug-15 02:30N 51°18' E 003°50'1 1.4
2017-Aug-15 02:01N 51°19' E 003°50'1 2.4
2017-Aug-15 01:30N 51°20' E 003°49'0 0.8
2017-Aug-15 01:00N 51°20' E 003°49'0 0.0
2017-Aug-15 00:30N 51°20' E 003°49'0 0.0
2017-Aug-15 00:00N 51°20' E 003°49'0 0.0
2017-Aug-14 23:30N 51°20' E 003°49'0 0.2
2017-Aug-14 23:00N 51°20' E 003°49'1 2.6
2017-Aug-14 22:30N 51°21' E 003°47'0 0.0
2017-Aug-14 22:00N 51°21' E 003°47'0 0.0
2017-Aug-14 21:30N 51°21' E 003°47'0 0.0
2017-Aug-14 20:57N 51°21' E 003°47'0 0.0
2017-Aug-14 20:27N 51°21' E 003°47'0 0.0
2017-Aug-14 19:51N 51°21' E 003°47'0 0.0
2017-Aug-14 19:24N 51°21' E 003°47'0 0.0
2017-Aug-14 18:45N 51°21' E 003°47'0 0.0
2017-Aug-14 18:27N 51°21' E 003°47'0 0.0
2017-Aug-14 17:57N 51°21' E 003°47'0 0.0
2017-Aug-14 17:21N 51°21' E 003°47'0 0.0
2017-Aug-14 16:57N 51°21' E 003°47'0 0.0
2017-Aug-14 16:27N 51°21' E 003°47'0 0.0
2017-Aug-14 16:00N 51°21' E 003°47'0 0.0
2017-Aug-14 15:30N 51°21' E 003°47'0 0.0
2017-Aug-14 14:57N 51°21' E 003°47'0 0.0
2017-Aug-14 14:30N 51°21' E 003°47'0 0.0
2017-Aug-14 14:00N 51°21' E 003°47'0 0.0
2017-Aug-14 13:21N 51°21' E 003°47'0 0.0
2017-Aug-14 12:51N 51°21' E 003°47'0 0.0
2017-Aug-14 12:30N 51°21' E 003°47'0 0.0
2017-Aug-14 12:00N 51°21' E 003°47'3 6.1
2017-Aug-14 11:30N 51°23' E 003°43'5 9.7
2017-Aug-14 11:00N 51°26' E 003°38'510.0
2017-Aug-14 10:30N 51°28' E 003°30'612.6
2017-Aug-14 10:00N 51°34' E 003°25'612.0
2017-Aug-14 09:29N 51°39' E 003°19'1314.6
2017-Aug-14 08:36N 51°52' E 003°17'0 0.0
2017-Aug-14 08:30N 51°52' E 003°17'2 4.4
2017-Aug-14 08:00N 51°54' E 003°18'  
Track history (hours):
 
Tides and Currents Weather Stations Pressure Air Temp Water Temp Dewpoint Dewpoint Depression Visibility Wind Speed Wind Dir Waves Ship Positions

Johann Essberger

Last reported at 2017-Aug-24 01:00 UTC. Time now 2017-Aug-24 01:12 UTC.
Position N 64°12' E 022°16'.

Length 98 m; draft 6.7 m.

Type: Tanker. MMSI: 255804460.

Date/timePositionNaut miles runAvg speedWind from/ knotsBaromVisibWave heightAir tempDewpointWater temp
2017-Aug-24 01:00N 64°12' E 022°16'611.6
2017-Aug-24 00:31N 64°08' E 022°07'611.6
2017-Aug-24 00:00N 64°03' E 021°59'611.3
2017-Aug-23 23:31N 63°59' E 021°51'510.9
2017-Aug-23 23:00N 63°54' E 021°43'511.0
2017-Aug-23 22:30N 63°50' E 021°35'510.9
2017-Aug-23 22:00N 63°46' E 021°27'611.4
2017-Aug-23 21:30N 63°42' E 021°19'612.0
2017-Aug-23 21:00N 63°37' E 021°10'611.7
2017-Aug-23 20:30N 63°34' E 020°59'612.0
2017-Aug-23 20:00N 63°32' E 020°46'612.8
2017-Aug-23 19:30N 63°27' E 020°38'510.7
2017-Aug-23 19:00N 63°23' E 020°31'611.6
2017-Aug-23 18:30N 63°18' E 020°24'611.3
2017-Aug-23 18:00N 63°12' E 020°22'611.8
2017-Aug-23 17:30N 63°06' E 020°22'611.7
2017-Aug-23 17:00N 63°00' E 020°22'611.8
2017-Aug-23 16:30N 62°54' E 020°22'611.9
2017-Aug-23 16:00N 62°48' E 020°22'611.7
2017-Aug-23 15:30N 62°43' E 020°22'611.6
2017-Aug-23 15:00N 62°37' E 020°22'1111.4
2017-Aug-23 14:00N 62°25' E 020°23'611.5
2017-Aug-23 13:30N 62°20' E 020°24'611.7
2017-Aug-23 13:00N 62°14' E 020°26'611.8
2017-Aug-23 12:30N 62°08' E 020°27'611.8
2017-Aug-23 12:00N 62°02' E 020°28'611.8
2017-Aug-23 11:30N 61°56' E 020°30'611.7
2017-Aug-23 11:00N 61°50' E 020°31'611.5
2017-Aug-23 10:30N 61°45' E 020°32'611.4
2017-Aug-23 10:00N 61°39' E 020°34'611.3
2017-Aug-23 09:30N 61°33' E 020°35'611.3
2017-Aug-23 09:00N 61°28' E 020°36'611.2
2017-Aug-23 08:30N 61°22' E 020°37'611.2
2017-Aug-23 08:00N 61°17' E 020°38'611.0
2017-Aug-23 07:30N 61°11' E 020°40'510.9
2017-Aug-23 07:00N 61°06' E 020°41'510.8
2017-Aug-23 06:30N 61°00' E 020°42'510.8
2017-Aug-23 06:00N 60°55' E 020°43'510.8
2017-Aug-23 05:30N 60°50' E 020°45'611.3
2017-Aug-23 05:00N 60°46' E 020°52'510.9
2017-Aug-23 04:30N 60°42' E 021°01'713.0
2017-Aug-23 04:00N 60°36' E 021°06'713.3
2017-Aug-23 03:31N 60°30' E 021°11'713.5
2017-Aug-23 03:00N 60°29' E 021°24'612.2
2017-Aug-23 02:31N 60°24' E 021°32'612.9
2017-Aug-23 02:00N 60°19' E 021°41'713.1
2017-Aug-23 01:30N 60°16' E 021°52'612.9
2017-Aug-23 01:00N 60°20' E 022°03'612.3
2017-Aug-23 00:31N 60°25' E 022°08'3 5.3
2017-Aug-23 00:00N 60°26' E 022°13'0 0.0
2017-Aug-22 23:28N 60°26' E 022°13'0 0.0
2017-Aug-22 22:58N 60°26' E 022°13'0 0.0
2017-Aug-22 22:28N 60°26' E 022°13'0 0.0
2017-Aug-22 21:58N 60°26' E 022°13'0 0.0
2017-Aug-22 21:28N 60°26' E 022°13'0 0.0
2017-Aug-22 20:58N 60°26' E 022°13'0 0.0
2017-Aug-22 20:28N 60°26' E 022°13'0 0.0
2017-Aug-22 20:00N 60°26' E 022°13'0 0.0
2017-Aug-22 19:29N 60°26' E 022°13'0 0.0
2017-Aug-22 18:58N 60°26' E 022°13'0 0.0
2017-Aug-22 18:28N 60°26' E 022°13'0 0.0
2017-Aug-22 17:55N 60°26' E 022°13'0 0.0
2017-Aug-22 17:28N 60°26' E 022°13'0 0.0
2017-Aug-22 16:58N 60°26' E 022°13'0 0.0
2017-Aug-22 16:30N 60°26' E 022°13'3 6.3
2017-Aug-22 16:00N 60°25' E 022°08'713.2
2017-Aug-22 15:31N 60°19' E 022°02'713.1
2017-Aug-22 15:01N 60°15' E 021°51'611.6
2017-Aug-22 14:31N 60°12' E 021°42'611.4
2017-Aug-22 14:01N 60°06' E 021°42'713.3
2017-Aug-22 13:31N 59°59' E 021°42'612.9
2017-Aug-22 13:01N 59°54' E 021°34'713.4
2017-Aug-22 12:31N 59°50' E 021°23'611.2
2017-Aug-22 12:00N 59°45' E 021°21'612.4
2017-Aug-22 11:30N 59°39' E 021°19'612.2
2017-Aug-22 11:00N 59°33' E 021°13'612.3
2017-Aug-22 10:30N 59°28' E 021°08'612.2
2017-Aug-22 10:00N 59°22' E 021°02'612.2
2017-Aug-22 09:30N 59°17' E 020°56'612.4
2017-Aug-22 09:00N 59°11' E 020°51'612.5
2017-Aug-22 08:30N 59°06' E 020°45'22312.1
2017-Aug-21 14:05N 56°04' E 016°46'212.2
2017-Aug-21 13:57N 56°03' E 016°43'612.3
2017-Aug-21 13:29N 55°60' E 016°35'612.3
2017-Aug-21 13:00N 55°57' E 016°25'612.4
2017-Aug-21 12:30N 55°54' E 016°16'612.3
2017-Aug-21 12:00N 55°51' E 016°06'612.6
2017-Aug-21 11:30N 55°48' E 015°56'613.0
2017-Aug-21 11:00N 55°45' E 015°46'713.1
2017-Aug-21 10:30N 55°42' E 015°36'713.2
2017-Aug-21 10:00N 55°38' E 015°26'713.3
2017-Aug-21 09:30N 55°35' E 015°15'713.0
2017-Aug-21 09:00N 55°32' E 015°05'612.8
2017-Aug-21 08:30N 55°29' E 014°56'612.9
2017-Aug-21 08:00N 55°26' E 014°45'612.6
2017-Aug-21 07:30N 55°22' E 014°37'612.7
2017-Aug-21 07:00N 55°17' E 014°30'612.6
2017-Aug-21 06:30N 55°12' E 014°23'612.5
2017-Aug-21 06:00N 55°07' E 014°16'612.3
2017-Aug-21 05:29N 55°03' E 014°08'612.1
2017-Aug-21 05:00N 54°60' E 013°60'612.2
2017-Aug-21 04:30N 54°57' E 013°50'611.9
2017-Aug-21 04:00N 54°56' E 013°40'2112.0
2017-Aug-21 02:17N 54°49' E 013°06'312.0
2017-Aug-21 02:00N 54°48' E 013°01'612.1
2017-Aug-21 01:30N 54°46' E 012°51'1411.8
2017-Aug-21 00:17N 54°39' E 012°29'312.1
2017-Aug-21 00:00N 54°37' E 012°24'611.4
2017-Aug-20 23:30N 54°33' E 012°17'612.1
2017-Aug-20 23:00N 54°27' E 012°14'611.3
2017-Aug-20 22:30N 54°24' E 012°05'1512.0
2017-Aug-20 21:14N 54°27' E 011°39'312.1
2017-Aug-20 20:59N 54°28' E 011°34'612.4
2017-Aug-20 20:30N 54°30' E 011°25'612.6
2017-Aug-20 20:00N 54°33' E 011°15'612.1
2017-Aug-20 19:30N 54°35' E 011°05'612.5
2017-Aug-20 19:00N 54°35' E 010°55'612.1
2017-Aug-20 18:30N 54°34' E 010°44'58 7.5
2017-Aug-20 10:51N 54°05' E 009°19'3 8.6
2017-Aug-20 10:28N 54°02' E 009°18'4 8.2
2017-Aug-20 10:00N 53°58' E 009°16'2 3.6
2017-Aug-20 09:30N 53°57' E 009°14'1 2.7
2017-Aug-20 09:00N 53°56' E 009°12'3 5.8
2017-Aug-20 08:30N 53°54' E 009°09'0 0.0
2017-Aug-20 08:00N 53°54' E 009°09'2 3.3
2017-Aug-20 07:30N 53°53' E 009°06'1 2.5
2017-Aug-20 07:01N 53°53' E 009°04'611.4
2017-Aug-20 06:30N 53°51' E 008°55'611.7
2017-Aug-20 06:00N 53°51' E 008°45'611.3
2017-Aug-20 05:28N 53°56' E 008°39'511.1
2017-Aug-20 05:00N 53°58' E 008°31'612.5
2017-Aug-20 04:30N 53°59' E 008°21'713.0
2017-Aug-20 04:00N 53°60' E 008°10'611.8
2017-Aug-20 03:30N 53°58' E 008°00'9410.8
2017-Aug-19 18:48N 53°34' E 005°26'310.5
2017-Aug-19 18:29N 53°32' E 005°21'510.5
2017-Aug-19 17:57N 53°31' E 005°12'510.3
2017-Aug-19 17:30N 53°29' E 005°05'510.4
2017-Aug-19 17:00N 53°27' E 004°57'810.1
2017-Aug-19 16:10N 53°24' E 004°44'2 9.6
2017-Aug-19 15:59N 53°22' E 004°42'2010.0
2017-Aug-19 14:00N 53°04' E 004°27'713.4
2017-Aug-19 13:30N 52°59' E 004°21'713.4
2017-Aug-19 13:00N 52°53' E 004°17'713.5
2017-Aug-19 12:30N 52°47' E 004°11'713.6
2017-Aug-19 12:00N 52°41' E 004°05'713.7
2017-Aug-19 11:30N 52°35' E 003°59'613.0
2017-Aug-19 11:00N 52°29' E 003°55'712.9
2017-Aug-19 10:30N 52°23' E 003°53'612.2
2017-Aug-19 10:00N 52°17' E 003°52'611.7
2017-Aug-19 09:30N 52°11' E 003°54'611.6
2017-Aug-19 09:00N 52°05' E 003°55'4 9.0
2017-Aug-19 08:30N 52°01' E 003°57'713.4
2017-Aug-19 08:00N 51°59' E 004°07'713.6
2017-Aug-19 07:30N 51°54' E 004°16'5 9.4
2017-Aug-19 07:00N 51°51' E 004°21'611.6
2017-Aug-19 06:30N 51°50' E 004°30'917.2
2017-Aug-19 06:00N 51°42' E 004°34'0 0.0
2017-Aug-19 05:30N 51°42' E 004°34'0 0.0
2017-Aug-19 05:00N 51°42' E 004°34'0 0.0
2017-Aug-18 17:54N 51°42' E 004°34'0 0.0
2017-Aug-18 17:30N 51°42' E 004°34'0 0.0
2017-Aug-18 17:00N 51°42' E 004°34'0 0.0
2017-Aug-18 16:30N 51°42' E 004°34'0 0.0
2017-Aug-18 16:00N 51°42' E 004°34'0 0.0
2017-Aug-18 15:30N 51°42' E 004°34'0 0.0
2017-Aug-18 15:00N 51°42' E 004°34'0 0.0
2017-Aug-18 14:30N 51°42' E 004°34'2 2.4
2017-Aug-18 13:31N 51°43' E 004°37'5 9.9
2017-Aug-18 13:01N 51°48' E 004°37'5 9.8
2017-Aug-18 12:30N 51°50' E 004°30'611.7
2017-Aug-18 12:00N 51°51' E 004°21'3 6.4
2017-Aug-18 11:30N 51°53' E 004°17'0 0.4
2017-Aug-18 11:00N 51°53' E 004°17'0 0.0
2017-Aug-18 10:00N 51°53' E 004°17'0 0.0
2017-Aug-18 09:30N 51°53' E 004°17'0 0.0
2017-Aug-18 09:00N 51°53' E 004°17'0 0.0
2017-Aug-18 08:30N 51°53' E 004°17'0 0.0
2017-Aug-18 08:00N 51°53' E 004°17'0 0.0
2017-Aug-18 07:30N 51°53' E 004°17'0 0.0
2017-Aug-18 07:00N 51°53' E 004°17'0 0.0
2017-Aug-18 06:30N 51°53' E 004°17'0 0.0
2017-Aug-18 05:18N 51°53' E 004°17'0 0.0
2017-Aug-18 04:46N 51°53' E 004°17'0 0.0
2017-Aug-18 04:30N 51°53' E 004°17'0 0.0
2017-Aug-18 04:00N 51°53' E 004°17'0 0.0
2017-Aug-18 03:05N 51°53' E 004°17'0 0.0
2017-Aug-18 03:00N 51°53' E 004°17'0 0.0
2017-Aug-18 02:30N 51°53' E 004°17'0 0.0
2017-Aug-18 02:00N 51°53' E 004°17'0 0.0
2017-Aug-18 00:00N 51°53' E 004°17'0 0.0
2017-Aug-17 23:30N 51°53' E 004°17'0 0.0
2017-Aug-17 23:00N 51°53' E 004°17'0 0.0
2017-Aug-17 22:30N 51°53' E 004°17'0 0.0
2017-Aug-17 22:00N 51°53' E 004°17'0 0.0
2017-Aug-17 21:30N 51°53' E 004°17'0 0.0
2017-Aug-17 21:00N 51°53' E 004°17'0 0.0
2017-Aug-17 20:30N 51°53' E 004°17'0 0.0
2017-Aug-17 20:00N 51°53' E 004°17'0 0.0
2017-Aug-17 19:30N 51°53' E 004°17'0 0.0
2017-Aug-17 19:00N 51°53' E 004°17'0 0.0
2017-Aug-17 18:30N 51°53' E 004°17'0 0.0
2017-Aug-17 18:00N 51°53' E 004°17'0 0.0
2017-Aug-17 17:30N 51°53' E 004°17'0 0.0
2017-Aug-17 16:52N 51°53' E 004°17'0 0.0
2017-Aug-17 16:30N 51°53' E 004°17'0 0.0
2017-Aug-17 15:00N 51°53' E 004°17'0 0.0
2017-Aug-17 14:30N 51°53' E 004°17'0 0.0
2017-Aug-17 14:00N 51°53' E 004°17'1 1.3
2017-Aug-17 13:30N 51°54' E 004°17'611.2
2017-Aug-17 13:00N 51°57' E 004°10'612.7
2017-Aug-17 12:30N 51°60' E 004°01'713.4
2017-Aug-17 12:00N 52°00' E 003°50'46 4.5
2017-Aug-17 01:43N 51°49' E 002°38'2 7.8
2017-Aug-17 01:30N 51°48' E 002°40'6 8.9
2017-Aug-17 00:52N 51°45' E 002°48'513.6
2017-Aug-17 00:30N 51°45' E 002°56'713.9
2017-Aug-17 00:01N 51°45' E 003°07'713.6
2017-Aug-16 23:30N 51°43' E 003°17'612.8
2017-Aug-16 23:00N 51°37' E 003°22'714.7
2017-Aug-16 22:30N 51°30' E 003°27'713.5
2017-Aug-16 22:01N 51°26' E 003°35'510.3
2017-Aug-16 21:31N 51°23' E 003°43'713.4
2017-Aug-16 21:00N 51°21' E 003°53'612.5
2017-Aug-16 20:30N 51°26' E 003°59'510.4
2017-Aug-16 20:00N 51°22' E 004°05'510.5
2017-Aug-16 19:30N 51°23' E 004°13'611.5
2017-Aug-16 19:01N 51°18' E 004°17'3 5.0
2017-Aug-16 18:31N 51°17' E 004°20'0 0.3
2017-Aug-16 18:00N 51°17' E 004°20'0 0.5
2017-Aug-16 17:30N 51°17' E 004°20'0 0.0
2017-Aug-16 16:56N 51°17' E 004°20'0 0.0
2017-Aug-16 16:29N 51°17' E 004°20'0 0.0
2017-Aug-16 09:20N 51°17' E 004°20'0 0.0
2017-Aug-16 09:00N 51°17' E 004°20'2 3.1
2017-Aug-16 08:30N 51°15' E 004°21'1 1.0
2017-Aug-16 08:00N 51°15' E 004°21'0 0.0
2017-Aug-16 07:29N 51°15' E 004°21'0 0.0
2017-Aug-16 06:44N 51°15' E 004°21'0 0.0
2017-Aug-16 06:29N 51°15' E 004°21'0 0.0
2017-Aug-16 05:47N 51°15' E 004°21'0 0.0
2017-Aug-16 05:29N 51°15' E 004°21'0 0.0
2017-Aug-16 04:59N 51°15' E 004°21'0 0.0
2017-Aug-16 04:20N 51°15' E 004°21'0 0.0
2017-Aug-16 03:53N 51°15' E 004°21'0 0.0
2017-Aug-16 03:26N 51°15' E 004°21'0 0.0
2017-Aug-16 02:59N 51°15' E 004°21'0 0.0
2017-Aug-16 02:17N 51°15' E 004°21'0 0.0
2017-Aug-16 01:45N 51°15' E 004°21'0 0.0
2017-Aug-16 01:19N 51°15' E 004°21'0 0.0
2017-Aug-16 00:55N 51°15' E 004°21'0 0.0
2017-Aug-16 00:28N 51°15' E 004°21'0 0.0
2017-Aug-15 23:58N 51°15' E 004°21'0 0.0
2017-Aug-15 23:28N 51°15' E 004°21'0 0.0
2017-Aug-15 22:55N 51°15' E 004°21'0 0.0
2017-Aug-15 22:22N 51°15' E 004°21'0 0.0
2017-Aug-15 21:55N 51°15' E 004°21'0 0.0
2017-Aug-15 21:07N 51°15' E 004°21'0 0.0
2017-Aug-15 20:49N 51°15' E 004°21'0 0.0
2017-Aug-15 20:30N 51°15' E 004°21'0 0.3
2017-Aug-15 20:00N 51°15' E 004°22'1 1.4
2017-Aug-15 19:30N 51°16' E 004°21'1 2.2
2017-Aug-15 19:00N 51°17' E 004°20'3 5.4
2017-Aug-15 18:30N 51°19' E 004°19'2 3.9
2017-Aug-15 18:00N 51°21' E 004°17'0 0.0
2017-Aug-15 17:30N 51°21' E 004°17'0 0.0
2017-Aug-15 17:00N 51°21' E 004°17'0 0.5
2017-Aug-15 16:30N 51°21' E 004°17'2 3.2
2017-Aug-15 16:00N 51°21' E 004°14'4 7.0
2017-Aug-15 15:30N 51°23' E 004°09'612.4
2017-Aug-15 15:00N 51°26' E 004°01'713.8
2017-Aug-15 14:30N 51°21' E 003°53'3 5.4
2017-Aug-15 14:01N 51°20' E 003°49'0 0.7
2017-Aug-15 13:31N 51°19' E 003°49'1 2.3
2017-Aug-15 13:01N 51°18' E 003°50'0 0.6
2017-Aug-15 12:26N 51°18' E 003°50'0 0.0
2017-Aug-15 11:08N 51°18' E 003°50'0 0.0
2017-Aug-15 10:56N 51°18' E 003°50'0 0.0
2017-Aug-15 10:14N 51°18' E 003°50'0 0.0
2017-Aug-15 09:38N 51°18' E 003°50'0 0.0
2017-Aug-15 09:14N 51°18' E 003°50'0 0.0
2017-Aug-15 08:50N 51°18' E 003°50'0 0.0
2017-Aug-15 08:02N 51°18' E 003°50'0 0.0
2017-Aug-15 07:20N 51°18' E 003°50'0 0.0
2017-Aug-15 06:56N 51°18' E 003°50'0 0.0
2017-Aug-15 02:50N 51°18' E 003°50'0 0.0
2017-Aug-15 02:30N 51°18' E 003°50'1 1.4
2017-Aug-15 02:01N 51°19' E 003°50'1 2.4
2017-Aug-15 01:30N 51°20' E 003°49'0 0.8
2017-Aug-15 01:00N 51°20' E 003°49'0 0.0
2017-Aug-15 00:30N 51°20' E 003°49'0 0.0
2017-Aug-15 00:00N 51°20' E 003°49'0 0.0
2017-Aug-14 23:30N 51°20' E 003°49'0 0.2
2017-Aug-14 23:00N 51°20' E 003°49'1 2.6
2017-Aug-14 22:30N 51°21' E 003°47'0 0.0
2017-Aug-14 22:00N 51°21' E 003°47'0 0.0
2017-Aug-14 21:30N 51°21' E 003°47'0 0.0
2017-Aug-14 20:57N 51°21' E 003°47'0 0.0
2017-Aug-14 20:27N 51°21' E 003°47'0 0.0
2017-Aug-14 19:51N 51°21' E 003°47'0 0.0
2017-Aug-14 19:24N 51°21' E 003°47'0 0.0
2017-Aug-14 18:45N 51°21' E 003°47'0 0.0
2017-Aug-14 18:27N 51°21' E 003°47'0 0.0
2017-Aug-14 17:57N 51°21' E 003°47'0 0.0
2017-Aug-14 17:21N 51°21' E 003°47'0 0.0
2017-Aug-14 16:57N 51°21' E 003°47'0 0.0
2017-Aug-14 16:27N 51°21' E 003°47'0 0.0
2017-Aug-14 16:00N 51°21' E 003°47'0 0.0
2017-Aug-14 15:30N 51°21' E 003°47'0 0.0
2017-Aug-14 14:57N 51°21' E 003°47'0 0.0
2017-Aug-14 14:30N 51°21' E 003°47'0 0.0
2017-Aug-14 14:00N 51°21' E 003°47'0 0.0
2017-Aug-14 13:21N 51°21' E 003°47'0 0.0
2017-Aug-14 12:51N 51°21' E 003°47'0 0.0
2017-Aug-14 12:30N 51°21' E 003°47'0 0.0
2017-Aug-14 12:00N 51°21' E 003°47'3 6.1
2017-Aug-14 11:30N 51°23' E 003°43'5 9.7
2017-Aug-14 11:00N 51°26' E 003°38'510.0
2017-Aug-14 10:30N 51°28' E 003°30'612.6
2017-Aug-14 10:00N 51°34' E 003°25'612.0
2017-Aug-14 09:29N 51°39' E 003°19'1314.6
2017-Aug-14 08:36N 51°52' E 003°17'0 0.0
2017-Aug-14 08:30N 51°52' E 003°17'2 4.4
2017-Aug-14 08:00N 51°54' E 003°18'  

Dump ship's entire track history